Station Historical Data
Daily Summary for March 28, 2017 Units:  English    Metric   Both
« Previous Day
Next Day »
Daily Weekly Monthly Yearly Custom
  High: Low: Average:
Temperature: 77.2 °F 61.9 °F 69.7 °F
Dew Point: 59.8 °F 54.3 °F 57 °F
Humidity: 79% 52% 65%
Wind Speed: 2.0mph 0.0mph 0.2mph
Wind Gust: 6.0mph - -
Wind- - SW
Pressure: 30.01 in 29.94 in -
Precipitation: 0.07 in    
Historical Graphs
 
 
Tabular Data for March 28, 2017
Time Temperature Dew Point Pressure Wind Wind Speed Wind Gust Humidity Rainfall Rate (Hourly) Conditions
16:45 77.1 °F 59.2 °F 29.95 in Calm   5.0 mph 54% 0.00 in SCT
17:00 77.0 °F 58.6 °F 29.94 in ENE 2.0 mph 5.0 mph 53% 0.00 in SCT
17:15 77.2 °F 59.8 °F 29.94 in Calm   3.0 mph 55% 0.00 in SCT
17:30 77.0 °F 59.1 °F 29.94 in Calm   3.0 mph 54% 0.00 in SCT
17:45 76.8 °F 58.4 °F 29.94 in NW 1.0 mph 3.0 mph 53% 0.00 in SCT
18:00 76.2 °F 57.3 °F 29.94 in WSW 1.0 mph 5.0 mph 52% 0.00 in SCT
18:15 76.4 °F 58.0 °F 29.94 in Calm   6.0 mph 53% 0.00 in SCT
18:30 75.9 °F 57.5 °F 29.94 in Calm   6.0 mph 53% 0.00 in SCT
18:45 75.3 °F 57.5 °F 29.94 in ESE 1.0 mph 5.0 mph 54% 0.00 in SCT
19:00 74.6 °F 57.9 °F 29.95 in NW 1.0 mph 3.0 mph 56% 0.00 in SCT
19:30 73.4 °F 57.3 °F 29.96 in Calm   2.0 mph 57% 0.00 in SCT
19:45 72.1 °F 56.9 °F 29.96 in Calm     59% 0.00 in SCT
20:00 70.9 °F 57.7 °F 29.97 in Calm     63% 0.00 in SCT
20:15 69.6 °F 57.3 °F 29.97 in Calm     65% 0.00 in SCT
20:30 68.6 °F 57.2 °F 29.97 in Calm     67% 0.00 in SCT
20:45 67.7 °F 57.1 °F 29.97 in Calm     69% 0.00 in SCT
21:00 66.9 °F 57.2 °F 29.98 in Calm     71% 0.00 in SCT
21:15 66.1 °F 56.8 °F 29.98 in Calm     72% 0.00 in SCT
21:30 65.3 °F 56.0 °F 29.99 in Calm     72% 0.00 in SCT
21:45 64.6 °F 56.1 °F 29.99 in Calm     74% 0.00 in SCT
22:00 64.6 °F 56.1 °F 30.00 in Calm     74% 0.00 in SCT
22:15 64.0 °F 55.9 °F 30.00 in Calm     75% 0.00 in SCT
22:30 63.2 °F 55.9 °F 30.00 in Calm     77% 0.00 in SCT
22:45 62.6 °F 56.0 °F 30.01 in Calm     79% 0.00 in SCT
23:00 62.5 °F 55.5 °F 30.01 in Calm     78% 0.00 in SCT
23:15 61.9 °F 55.0 °F 30.01 in Calm     78% 0.00 in SCT
23:30 62.0 °F 55.1 °F 30.01 in Calm     78% 0.00 in SCT
23:45 62.3 °F 54.3 °F 30.01 in Calm     75% 0.00 in SCT
Piedmont Bend
Compliments of Weather Underground - 4 mb